Time;durP1;ratioP1;P1;durP2;ratioP2;P2;SDS_P1;SDS_P2;PMS_P1;PMS_P2;Temp;Humidity;BMP_temperature;BMP_pressure;BME280_temperature;BME280_humidity;BME280_pressure;Samples;Min_cycle;Max_cycle;Signal;HPM_P1;HPM_P2
2023/05/15 00:01:15;;;;;;;5.53;4.90;;;;;;;;;;4993935;28;20244;-48
2023/05/15 00:03:41;;;;;;;5.68;4.97;;;;;;;;;;4995245;28;20179;-50
2023/05/15 00:06:07;;;;;;;6.55;5.28;;;;;;;;;;4993806;28;20173;-49
2023/05/15 00:08:33;;;;;;;6.18;4.75;;;;;;;;;;4993199;28;20461;-49
2023/05/15 00:10:58;;;;;;;5.82;5.13;;;;;;;;;;4994094;28;20193;-49
2023/05/15 00:13:24;;;;;;;6.82;5.10;;;;;;;;;;4993163;28;20181;-49
2023/05/15 00:15:50;;;;;;;6.88;4.82;;;;;;;;;;4994323;28;20268;-49
2023/05/15 00:18:16;;;;;;;5.88;5.28;;;;;;;;;;4993584;28;20224;-48
2023/05/15 00:20:42;;;;;;;6.70;5.00;;;;;;;;;;4993402;28;20212;-49
2023/05/15 00:23:09;;;;;;;5.32;4.78;;;;;;;;;;4993503;28;20189;-49
2023/05/15 00:25:35;;;;;;;6.13;4.70;;;;;;;;;;4993757;28;20293;-49
2023/05/15 00:28:00;;;;;;;5.50;4.88;;;;;;;;;;4994293;28;20213;-49
2023/05/15 00:30:27;;;;;;;5.75;4.90;;;;;;;;;;4992777;28;20196;-49
2023/05/15 00:32:53;;;;;;;6.30;5.07;;;;;;;;;;4994334;28;20189;-49
2023/05/15 00:35:19;;;;;;;5.05;4.45;;;;;;;;;;4994371;28;20196;-49
2023/05/15 00:37:45;;;;;;;7.50;4.70;;;;;;;;;;4993802;28;20268;-49
2023/05/15 00:40:14;;;;;;;10.98;4.82;;;;;;;;;;4993504;28;20224;-49
2023/05/15 00:42:40;;;;;;;7.95;4.78;;;;;;;;;;4994615;28;20216;-49
2023/05/15 00:45:08;;;;;;;4.82;4.43;;;;;;;;;;4997999;28;20189;-49
2023/05/15 00:47:34;;;;;;;5.05;4.32;;;;;;;;;;4996909;28;20193;-49
2023/05/15 00:50:00;;;;;;;6.60;5.13;;;;;;;;;;4996649;28;20269;-49
2023/05/15 00:52:26;;;;;;;5.30;4.28;;;;;;;;;;4997189;28;20538;-49
2023/05/15 00:54:52;;;;;;;4.88;4.40;;;;;;;;;;4998336;28;20198;-49
2023/05/15 00:57:18;;;;;;;4.60;4.20;;;;;;;;;;4995680;28;20189;-49
2023/05/15 00:59:45;;;;;;;6.97;4.68;;;;;;;;;;4995612;28;20568;-50
2023/05/15 01:02:18;;;;;;;7.15;4.20;;;;;;;;;;4997340;28;20213;-49
2023/05/15 01:04:44;;;;;;;7.32;4.80;;;;;;;;;;4998175;28;20208;-49
2023/05/15 01:07:10;;;;;;;5.53;4.78;;;;;;;;;;4996835;28;20185;-49
2023/05/15 01:09:36;;;;;;;8.23;4.72;;;;;;;;;;4996037;28;20574;-49
2023/05/15 01:12:04;;;;;;;4.82;4.03;;;;;;;;;;4997481;28;20495;-49
2023/05/15 01:14:30;;;;;;;6.45;4.15;;;;;;;;;;4997396;28;20185;-49
2023/05/15 01:16:56;;;;;;;4.40;4.00;;;;;;;;;;4997900;28;20193;-49
2023/05/15 01:19:22;;;;;;;4.25;3.85;;;;;;;;;;4994053;28;20185;-49
2023/05/15 01:21:57;;;;;;;6.35;4.13;;;;;;;;;;4996880;28;20200;-49
2023/05/15 01:24:32;;;;;;;4.97;4.10;;;;;;;;;;4996236;28;20220;-49
2023/05/15 01:27:25;;;;;;;4.88;4.30;;;;;;;;;;4996696;28;20192;-48
2023/05/15 01:29:55;;;;;;;4.50;4.10;;;;;;;;;;4992773;28;20189;-49
2023/05/15 01:32:31;;;;;;;5.53;4.28;;;;;;;;;;4997486;28;20308;-49
2023/05/15 01:35:03;;;;;;;4.40;4.00;;;;;;;;;;4995661;28;20485;-49
2023/05/15 01:37:31;;;;;;;4.35;3.95;;;;;;;;;;4996733;28;20189;-49
2023/05/15 01:39:59;;;;;;;4.38;3.97;;;;;;;;;;4992745;28;20232;-49
2023/05/15 01:42:30;;;;;;;4.47;4.07;;;;;;;;;;4995840;28;20266;-49
2023/05/15 01:44:56;;;;;;;7.57;4.03;;;;;;;;;;4997537;28;20268;-49
2023/05/15 01:47:26;;;;;;;5.38;4.47;;;;;;;;;;4996937;28;20457;-49
2023/05/15 01:49:54;;;;;;;4.65;4.10;;;;;;;;;;4995266;28;20177;-48
2023/05/15 01:52:24;;;;;;;5.32;4.03;;;;;;;;;;4996137;28;20185;-49
2023/05/15 01:54:50;;;;;;;4.22;3.72;;;;;;;;;;4990593;28;20460;-49
2023/05/15 01:57:16;;;;;;;7.60;4.22;;;;;;;;;;4997005;28;20204;-49
2023/05/15 01:59:43;;;;;;;5.40;3.97;;;;;;;;;;4995003;28;20201;-49
2023/05/15 02:02:10;;;;;;;4.88;3.78;;;;;;;;;;4995979;28;20535;-49
2023/05/15 02:04:37;;;;;;;4.78;3.83;;;;;;;;;;4995683;28;20272;-49
2023/05/15 02:07:03;;;;;;;4.75;4.15;;;;;;;;;;4996638;28;20292;-49
2023/05/15 02:09:30;;;;;;;4.78;4.10;;;;;;;;;;4994904;28;20232;-49
2023/05/15 02:11:57;;;;;;;4.10;3.65;;;;;;;;;;4996097;28;20208;-49
2023/05/15 02:14:23;;;;;;;6.78;4.05;;;;;;;;;;4992434;28;20185;-47
2023/05/15 02:16:50;;;;;;;5.05;3.83;;;;;;;;;;4996089;28;20205;-47
2023/05/15 02:19:16;;;;;;;6.10;4.07;;;;;;;;;;4994638;28;20188;-47
2023/05/15 02:21:42;;;;;;;5.03;3.80;;;;;;;;;;4996117;28;20204;-49
2023/05/15 02:24:08;;;;;;;3.72;3.42;;;;;;;;;;4995187;28;20256;-48
2023/05/15 02:26:40;;;;;;;4.10;3.67;;;;;;;;;;4996179;28;20260;-49
2023/05/15 02:29:09;;;;;;;4.88;3.97;;;;;;;;;;4994681;28;20207;-48
2023/05/15 02:31:58;;;;;;;5.55;3.42;;;;;;;;;;4996321;28;20641;-48
2023/05/15 02:34:31;;;;;;;4.03;3.63;;;;;;;;;;4995368;28;20188;-48
2023/05/15 02:36:58;;;;;;;4.15;3.75;;;;;;;;;;4995087;28;20181;-48
2023/05/15 02:39:24;;;;;;;3.40;3.10;;;;;;;;;;4992118;28;20190;-48
2023/05/15 02:41:51;;;;;;;3.58;3.28;;;;;;;;;;4995181;28;20236;-48
2023/05/15 02:44:17;;;;;;;6.15;3.30;;;;;;;;;;4994278;28;20189;-48
2023/05/15 02:46:44;;;;;;;3.78;3.47;;;;;;;;;;4994065;28;20491;-49
2023/05/15 02:49:11;;;;;;;4.60;3.92;;;;;;;;;;4997851;28;20184;-49
2023/05/15 02:51:36;;;;;;;4.50;3.22;;;;;;;;;;4995398;28;20252;-50
2023/05/15 02:54:03;;;;;;;4.57;3.47;;;;;;;;;;4994268;28;20192;-49
2023/05/15 02:56:29;;;;;;;3.65;3.10;;;;;;;;;;4995629;28;20232;-49
2023/05/15 02:58:55;;;;;;;4.53;3.50;;;;;;;;;;4994616;28;20497;-49
2023/05/15 03:01:21;;;;;;;3.60;3.20;;;;;;;;;;4995068;28;20205;-49
2023/05/15 03:03:47;;;;;;;4.10;3.38;;;;;;;;;;4995621;28;20561;-49
2023/05/15 03:06:14;;;;;;;5.07;3.10;;;;;;;;;;4992536;28;20212;-49
2023/05/15 03:08:40;;;;;;;3.75;3.13;;;;;;;;;;4995232;28;20181;-49
2023/05/15 03:11:05;;;;;;;5.35;3.45;;;;;;;;;;4994417;28;20479;-49
2023/05/15 03:13:31;;;;;;;3.63;3.10;;;;;;;;;;4995394;28;20229;-49
2023/05/15 03:15:57;;;;;;;3.33;3.03;;;;;;;;;;4993544;28;20497;-49
2023/05/15 03:18:23;;;;;;;4.43;3.35;;;;;;;;;;4977019;28;20169;-49
2023/05/15 03:20:52;;;;;;;3.63;3.17;;;;;;;;;;4992773;28;21466;-49
2023/05/15 03:23:18;;;;;;;8.43;3.50;;;;;;;;;;4994110;28;20205;-51
2023/05/15 03:25:44;;;;;;;5.82;3.55;;;;;;;;;;4993986;28;20216;-51
2023/05/15 03:28:10;;;;;;;4.78;3.10;;;;;;;;;;4995643;28;20177;-51
2023/05/15 03:30:36;;;;;;;3.83;3.47;;;;;;;;;;4993986;28;20257;-50
2023/05/15 03:33:02;;;;;;;5.00;3.17;;;;;;;;;;4995359;28;20288;-49
2023/05/15 03:35:29;;;;;;;4.63;3.40;;;;;;;;;;4994413;28;20432;-51
2023/05/15 03:37:55;;;;;;;21.70;6.80;;;;;;;;;;4993447;28;20185;-51
2023/05/15 03:40:20;;;;;;;20.35;6.40;;;;;;;;;;4992422;28;20195;-51
2023/05/15 03:42:46;;;;;;;16.35;5.43;;;;;;;;;;4994729;28;20208;-52
2023/05/15 03:45:12;;;;;;;14.95;5.00;;;;;;;;;;4994722;28;20471;-51
2023/05/15 03:47:38;;;;;;;14.73;4.43;;;;;;;;;;4994532;28;20242;-51
2023/05/15 03:50:04;;;;;;;62.88;15.43;;;;;;;;;;4992826;28;20196;-51
2023/05/15 03:52:30;;;;;;;79.15;19.10;;;;;;;;;;4993627;28;20582;-51
2023/05/15 03:54:56;;;;;;;69.20;17.15;;;;;;;;;;4993639;28;20193;-51
2023/05/15 03:57:22;;;;;;;61.92;15.48;;;;;;;;;;4995375;28;20212;-51
2023/05/15 03:59:48;;;;;;;49.63;14.05;;;;;;;;;;4993583;28;20189;-51
2023/05/15 04:02:14;;;;;;;49.00;12.70;;;;;;;;;;4996080;28;20223;-52
2023/05/15 04:04:40;;;;;;;40.60;11.82;;;;;;;;;;4994483;28;20260;-52
2023/05/15 04:07:06;;;;;;;39.50;11.30;;;;;;;;;;4994354;28;20253;-51
2023/05/15 04:09:32;;;;;;;35.78;11.48;;;;;;;;;;4993406;28;20178;-51
2023/05/15 04:11:58;;;;;;;38.65;11.13;;;;;;;;;;4994803;28;20178;-52
2023/05/15 04:14:24;;;;;;;37.13;10.52;;;;;;;;;;4994769;28;20576;-51
2023/05/15 04:16:49;;;;;;;40.13;11.48;;;;;;;;;;4994687;28;20515;-51
2023/05/15 04:19:15;;;;;;;39.20;10.13;;;;;;;;;;4996595;28;20264;-51
2023/05/15 04:21:41;;;;;;;26.42;9.65;;;;;;;;;;4998057;28;20220;-51
2023/05/15 04:24:07;;;;;;;25.17;9.57;;;;;;;;;;4997636;28;20616;-51
2023/05/15 04:26:33;;;;;;;25.13;8.65;;;;;;;;;;4997346;28;20209;-52
2023/05/15 04:28:59;;;;;;;30.23;9.00;;;;;;;;;;4998111;28;20181;-51
2023/05/15 04:31:26;;;;;;;28.33;9.43;;;;;;;;;;4998086;28;20197;-51
2023/05/15 04:33:52;;;;;;;26.42;8.50;;;;;;;;;;4997385;28;20217;-51
2023/05/15 04:36:18;;;;;;;28.17;8.73;;;;;;;;;;4996598;28;20221;-51
2023/05/15 04:38:44;;;;;;;22.35;7.90;;;;;;;;;;4997047;28;20227;-51
2023/05/15 04:41:10;;;;;;;24.00;8.18;;;;;;;;;;4995398;28;20214;-51
2023/05/15 04:43:36;;;;;;;18.73;7.70;;;;;;;;;;4998279;28;20165;-51
2023/05/15 04:46:01;;;;;;;19.70;7.32;;;;;;;;;;4997329;28;20420;-51
2023/05/15 04:48:27;;;;;;;16.23;6.93;;;;;;;;;;4997752;28;20188;-51
2023/05/15 04:50:53;;;;;;;20.80;7.72;;;;;;;;;;4995974;28;20192;-51
2023/05/15 04:53:19;;;;;;;18.83;6.97;;;;;;;;;;4991493;28;20192;-51
2023/05/15 04:55:46;;;;;;;19.40;7.18;;;;;;;;;;4997697;28;20498;-51
2023/05/15 04:58:11;;;;;;;17.02;6.28;;;;;;;;;;4996794;28;20181;-51
2023/05/15 05:00:38;;;;;;;15.13;6.20;;;;;;;;;;4995369;28;20204;-51
2023/05/15 05:03:04;;;;;;;16.85;6.75;;;;;;;;;;4996182;28;20209;-51
2023/05/15 05:05:30;;;;;;;17.05;7.28;;;;;;;;;;4997009;28;20209;-51
2023/05/15 05:07:56;;;;;;;13.80;6.63;;;;;;;;;;4996765;28;20174;-51
2023/05/15 05:10:22;;;;;;;14.18;5.68;;;;;;;;;;4995449;28;20184;-51
2023/05/15 05:12:48;;;;;;;15.80;6.05;;;;;;;;;;4979723;28;20268;-50
2023/05/15 05:15:14;;;;;;;11.93;6.05;;;;;;;;;;4997485;28;20185;-51
2023/05/15 05:17:40;;;;;;;15.05;5.55;;;;;;;;;;4996647;28;20204;-51
2023/05/15 05:20:09;;;;;;;11.20;6.03;;;;;;;;;;4993671;28;20561;-52
2023/05/15 05:22:35;;;;;;;16.73;5.60;;;;;;;;;;4993779;28;20221;-51
2023/05/15 05:25:01;;;;;;;14.52;6.13;;;;;;;;;;4996697;28;20189;-51
2023/05/15 05:27:27;;;;;;;12.15;5.88;;;;;;;;;;4996672;28;20235;-51
2023/05/15 05:29:53;;;;;;;11.05;5.03;;;;;;;;;;4995292;28;20193;-51
2023/05/15 05:32:19;;;;;;;13.10;5.35;;;;;;;;;;4995817;28;20568;-51
2023/05/15 05:34:45;;;;;;;12.30;6.05;;;;;;;;;;4996257;28;20857;-51
2023/05/15 05:37:11;;;;;;;11.05;5.07;;;;;;;;;;4994380;28;20189;-51
2023/05/15 05:39:37;;;;;;;7.97;4.80;;;;;;;;;;4995229;28;20227;-51
2023/05/15 05:42:03;;;;;;;11.77;5.22;;;;;;;;;;4996180;28;20502;-52
2023/05/15 05:44:28;;;;;;;9.88;5.15;;;;;;;;;;4996823;28;20193;-52
2023/05/15 05:46:54;;;;;;;9.90;4.82;;;;;;;;;;4996108;28;20727;-51
2023/05/15 05:49:20;;;;;;;9.48;5.25;;;;;;;;;;4994548;28;20263;-51
2023/05/15 05:51:46;;;;;;;10.90;4.90;;;;;;;;;;4995817;28;20251;-51
2023/05/15 05:54:13;;;;;;;10.05;6.10;;;;;;;;;;4996909;28;20584;-51
2023/05/15 05:56:39;;;;;;;10.40;5.53;;;;;;;;;;4996010;28;20193;-51
2023/05/15 05:59:05;;;;;;;8.75;5.50;;;;;;;;;;4995381;28;20193;-52
2023/05/15 06:01:31;;;;;;;10.85;5.82;;;;;;;;;;4994072;28;20213;-52
2023/05/15 06:03:57;;;;;;;9.50;5.28;;;;;;;;;;4995470;28;20181;-51
2023/05/15 06:06:23;;;;;;;9.75;5.30;;;;;;;;;;4995586;28;20288;-51
2023/05/15 06:08:49;;;;;;;10.25;5.50;;;;;;;;;;4995203;28;20466;-51
2023/05/15 06:11:15;;;;;;;9.90;5.55;;;;;;;;;;4995200;28;20181;-51
2023/05/15 06:13:42;;;;;;;6.18;4.35;;;;;;;;;;4994138;28;20220;-51
2023/05/15 06:16:08;;;;;;;9.82;4.60;;;;;;;;;;4996411;28;20201;-51
2023/05/15 06:18:34;;;;;;;7.53;4.60;;;;;;;;;;4991842;28;20318;-51
2023/05/15 06:21:00;;;;;;;8.27;5.18;;;;;;;;;;4995415;28;20499;-52
2023/05/15 06:23:26;;;;;;;9.10;4.30;;;;;;;;;;4994143;28;20185;-52
2023/05/15 06:25:52;;;;;;;8.38;5.15;;;;;;;;;;4977752;28;20193;-51
2023/05/15 06:28:18;;;;;;;7.63;4.80;;;;;;;;;;4995152;28;20185;-52
2023/05/15 06:30:44;;;;;;;6.40;4.90;;;;;;;;;;4995045;28;20210;-52
2023/05/15 06:33:10;;;;;;;7.75;4.53;;;;;;;;;;4993976;28;20185;-52
2023/05/15 06:35:36;;;;;;;8.05;4.35;;;;;;;;;;4995450;28;20588;-51
2023/05/15 06:38:02;;;;;;;7.72;4.65;;;;;;;;;;4995465;28;20185;-51
2023/05/15 06:40:28;;;;;;;6.25;3.97;;;;;;;;;;4993789;28;20188;-49
2023/05/15 06:42:57;;;;;;;8.82;4.40;;;;;;;;;;4994877;28;20537;-51
2023/05/15 06:45:23;;;;;;;7.55;4.68;;;;;;;;;;4978090;28;20185;-52
2023/05/15 06:47:49;;;;;;;6.72;4.82;;;;;;;;;;4995435;28;20608;-51
2023/05/15 06:50:15;;;;;;;6.57;4.20;;;;;;;;;;4992921;28;20177;-51
2023/05/15 06:52:41;;;;;;;7.35;3.92;;;;;;;;;;4993440;28;20292;-51
2023/05/15 06:55:07;;;;;;;7.22;4.90;;;;;;;;;;4993089;28;20192;-51
2023/05/15 06:57:33;;;;;;;5.43;3.90;;;;;;;;;;4995654;28;20283;-52
2023/05/15 06:59:59;;;;;;;6.97;4.65;;;;;;;;;;4994988;28;20208;-51
2023/05/15 07:02:25;;;;;;;6.53;4.53;;;;;;;;;;4995225;28;20201;-51
2023/05/15 07:04:51;;;;;;;5.82;4.28;;;;;;;;;;4994989;28;20517;-51
2023/05/15 07:07:17;;;;;;;6.82;4.10;;;;;;;;;;4995101;28;20619;-53
2023/05/15 07:09:47;;;;;;;6.78;3.42;;;;;;;;;;4995303;28;20185;-51
2023/05/15 07:12:13;;;;;;;5.47;3.63;;;;;;;;;;4995235;28;20259;-51
2023/05/15 07:14:38;;;;;;;4.25;3.70;;;;;;;;;;4995268;28;20282;-51
2023/05/15 07:17:04;;;;;;;7.20;4.63;;;;;;;;;;4995157;28;20173;-51
2023/05/15 07:19:30;;;;;;;8.02;3.88;;;;;;;;;;4994608;28;20276;-51
2023/05/15 07:21:56;;;;;;;6.00;3.40;;;;;;;;;;4994000;28;20223;-51
2023/05/15 07:24:22;;;;;;;6.60;3.67;;;;;;;;;;4995389;28;20181;-49
2023/05/15 07:26:48;;;;;;;4.85;3.78;;;;;;;;;;4995170;28;20189;-51
2023/05/15 07:29:14;;;;;;;6.25;3.95;;;;;;;;;;4994551;28;20188;-51
2023/05/15 07:31:43;;;;;;;4.80;4.03;;;;;;;;;;4994153;28;20416;-51
2023/05/15 07:34:09;;;;;;;6.25;4.03;;;;;;;;;;4986499;28;20181;-52
2023/05/15 07:36:35;;;;;;;3.90;3.50;;;;;;;;;;4993010;28;20610;-51
2023/05/15 07:39:01;;;;;;;4.15;3.53;;;;;;;;;;4990709;28;20188;-51
2023/05/15 07:41:26;;;;;;;6.13;4.20;;;;;;;;;;4994084;28;20220;-51
2023/05/15 07:43:52;;;;;;;6.43;4.53;;;;;;;;;;4995285;28;20608;-50
2023/05/15 07:46:18;;;;;;;5.70;3.75;;;;;;;;;;4994223;28;20428;-51
2023/05/15 07:48:44;;;;;;;3.85;3.28;;;;;;;;;;4994669;28;20216;-52
2023/05/15 07:51:10;;;;;;;4.63;3.30;;;;;;;;;;4995065;28;20239;-52
2023/05/15 07:53:36;;;;;;;5.05;3.65;;;;;;;;;;4994597;28;20177;-51
2023/05/15 07:56:02;;;;;;;4.68;3.60;;;;;;;;;;4993722;28;20207;-51
2023/05/15 07:58:28;;;;;;;3.83;3.42;;;;;;;;;;4994491;28;20185;-51
2023/05/15 08:00:54;;;;;;;3.90;3.47;;;;;;;;;;4994329;28;20447;-51
2023/05/15 08:03:20;;;;;;;4.68;4.18;;;;;;;;;;4994614;28;20212;-51
2023/05/15 08:05:46;;;;;;;3.90;3.50;;;;;;;;;;4993906;28;20288;-51
2023/05/15 08:08:12;;;;;;;5.60;3.75;;;;;;;;;;4994371;28;20181;-51
2023/05/15 08:10:37;;;;;;;5.00;3.13;;;;;;;;;;4977270;28;20564;-51
2023/05/15 08:13:03;;;;;;;3.85;3.55;;;;;;;;;;4994675;28;20196;-51
2023/05/15 08:15:29;;;;;;;4.70;3.50;;;;;;;;;;4991487;28;20571;-51
2023/05/15 08:17:55;;;;;;;3.55;3.10;;;;;;;;;;4993625;28;20197;-51
2023/05/15 08:20:21;;;;;;;5.53;3.60;;;;;;;;;;4991966;28;20193;-51
2023/05/15 08:22:47;;;;;;;3.45;3.15;;;;;;;;;;4993269;28;20248;-49
2023/05/15 08:25:13;;;;;;;4.60;3.22;;;;;;;;;;4993547;28;20563;-51
2023/05/15 08:27:39;;;;;;;4.05;3.30;;;;;;;;;;4993693;28;20185;-51
2023/05/15 08:30:05;;;;;;;4.00;3.58;;;;;;;;;;4985938;28;20251;-51
2023/05/15 08:32:31;;;;;;;3.83;3.03;;;;;;;;;;4993767;28;20767;-51
2023/05/15 08:34:57;;;;;;;3.38;3.08;;;;;;;;;;4992733;28;20235;-51
2023/05/15 08:37:23;;;;;;;3.30;2.78;;;;;;;;;;4992967;28;20193;-51
2023/05/15 08:39:49;;;;;;;4.38;3.22;;;;;;;;;;4994072;28;20189;-49
2023/05/15 08:42:20;;;;;;;4.38;3.30;;;;;;;;;;4991911;28;20678;-51
2023/05/15 08:44:47;;;;;;;3.53;2.83;;;;;;;;;;4993095;28;20182;-51
2023/05/15 08:47:14;;;;;;;4.05;3.47;;;;;;;;;;4993553;28;20208;-52
2023/05/15 08:49:45;;;;;;;3.85;3.53;;;;;;;;;;4993993;28;20181;-51
2023/05/15 08:52:11;;;;;;;3.33;3.03;;;;;;;;;;4992534;28;20185;-51
2023/05/15 08:54:37;;;;;;;3.75;3.25;;;;;;;;;;4993045;28;20212;-51
2023/05/15 08:57:04;;;;;;;3.47;3.00;;;;;;;;;;4993219;28;20585;-51
2023/05/15 08:59:30;;;;;;;3.78;2.88;;;;;;;;;;4993226;28;20189;-51
2023/05/15 09:01:56;;;;;;;3.38;3.08;;;;;;;;;;4993437;28;20213;-51
2023/05/15 09:04:22;;;;;;;3.85;2.92;;;;;;;;;;4994740;28;20224;-51
2023/05/15 09:06:48;;;;;;;3.25;2.83;;;;;;;;;;4996693;28;20217;-51
2023/05/15 09:09:15;;;;;;;4.93;3.50;;;;;;;;;;4996189;28;20661;-51
2023/05/15 09:11:43;;;;;;;3.78;3.35;;;;;;;;;;4997225;28;20174;-51
2023/05/15 09:14:09;;;;;;;4.13;3.55;;;;;;;;;;4996836;28;20189;-51
2023/05/15 09:16:35;;;;;;;4.30;3.55;;;;;;;;;;4997216;28;20487;-52
2023/05/15 09:19:02;;;;;;;4.40;3.10;;;;;;;;;;4996151;28;20193;-49
2023/05/15 09:21:30;;;;;;;3.30;2.88;;;;;;;;;;4996204;28;20308;-51
2023/05/15 09:24:14;;;;;;;3.47;3.17;;;;;;;;;;4996012;28;20224;-51
2023/05/15 09:26:40;;;;;;;3.60;2.83;;;;;;;;;;4997344;28;20185;-51
2023/05/15 09:29:06;;;;;;;3.40;3.10;;;;;;;;;;4994452;28;20243;-50
2023/05/15 09:31:31;;;;;;;3.60;3.10;;;;;;;;;;4996123;28;20193;-51
2023/05/15 09:34:03;;;;;;;3.50;3.17;;;;;;;;;;4993011;28;20193;-51
2023/05/15 09:36:29;;;;;;;3.92;3.20;;;;;;;;;;4993218;28;20232;-49
2023/05/15 09:38:59;;;;;;;3.22;2.92;;;;;;;;;;4978753;28;20203;-49
2023/05/15 09:41:26;;;;;;;3.70;3.05;;;;;;;;;;4996351;28;20259;-51
2023/05/15 09:43:55;;;;;;;3.42;3.13;;;;;;;;;;4993913;28;20260;-49
2023/05/15 09:46:21;;;;;;;3.58;2.83;;;;;;;;;;4988461;28;20264;-50
2023/05/15 09:48:46;;;;;;;3.50;2.83;;;;;;;;;;4995364;28;20252;-51
2023/05/15 09:51:17;;;;;;;3.08;2.83;;;;;;;;;;4993902;28;20448;-50
2023/05/15 09:53:43;;;;;;;3.42;3.13;;;;;;;;;;4994905;28;20181;-51
2023/05/15 09:56:09;;;;;;;3.42;3.10;;;;;;;;;;4996614;28;20193;-51
2023/05/15 09:58:35;;;;;;;3.30;2.92;;;;;;;;;;4995980;28;20173;-52
2023/05/15 10:01:02;;;;;;;3.60;2.92;;;;;;;;;;4995601;28;20199;-49
2023/05/15 10:03:28;;;;;;;3.35;3.05;;;;;;;;;;4995932;28;20180;-51
2023/05/15 10:06:03;;;;;;;3.40;3.10;;;;;;;;;;4995252;28;20217;-51
2023/05/15 10:08:29;;;;;;;4.00;3.60;;;;;;;;;;4994467;28;20204;-48
2023/05/15 10:10:59;;;;;;;4.35;3.40;;;;;;;;;;4995771;28;20185;-51
2023/05/15 10:13:26;;;;;;;4.03;3.63;;;;;;;;;;4995982;28;20189;-50
2023/05/15 10:15:52;;;;;;;3.63;3.00;;;;;;;;;;4995220;28;20199;-50
2023/05/15 10:18:20;;;;;;;3.10;2.80;;;;;;;;;;4994938;28;20177;-50
2023/05/15 10:20:46;;;;;;;4.60;2.95;;;;;;;;;;4989247;28;20223;-50
2023/05/15 10:23:13;;;;;;;3.40;3.10;;;;;;;;;;4990201;28;20213;-49
2023/05/15 10:25:49;;;;;;;3.40;3.10;;;;;;;;;;4993917;28;20280;-51
2023/05/15 10:28:16;;;;;;;3.75;3.10;;;;;;;;;;4990445;28;20217;-50
2023/05/15 10:30:42;;;;;;;3.67;3.20;;;;;;;;;;4995808;28;20473;-51
2023/05/15 10:33:08;;;;;;;3.60;3.30;;;;;;;;;;4994891;28;20169;-51
2023/05/15 10:35:35;;;;;;;3.45;2.97;;;;;;;;;;4993941;28;20192;-49
2023/05/15 10:38:03;;;;;;;3.00;2.70;;;;;;;;;;4993013;28;20189;-50
2023/05/15 10:40:30;;;;;;;3.70;3.30;;;;;;;;;;4991951;28;20253;-51
2023/05/15 10:43:00;;;;;;;3.08;2.80;;;;;;;;;;4991834;28;20459;-51
2023/05/15 10:45:26;;;;;;;2.33;2.20;;;;;;;;;;4994850;28;20192;-51
2023/05/15 10:47:52;;;;;;;5.03;3.05;;;;;;;;;;4995003;28;20189;-51
2023/05/15 10:50:19;;;;;;;3.67;2.67;;;;;;;;;;4993177;28;20204;-50
2023/05/15 10:52:45;;;;;;;2.78;2.55;;;;;;;;;;4994507;28;20208;-51
2023/05/15 10:55:15;;;;;;;6.25;4.25;;;;;;;;;;4994696;28;20465;-51
2023/05/15 10:57:42;;;;;;;6.50;5.80;;;;;;;;;;4994910;28;20201;-51
2023/05/15 11:00:23;;;;;;;12.20;6.65;;;;;;;;;;4993619;28;20181;-51
2023/05/15 11:02:52;;;;;;;6.53;5.88;;;;;;;;;;4994635;28;20212;-52
2023/05/15 11:05:18;;;;;;;9.82;6.25;;;;;;;;;;4993109;28;20546;-51
2023/05/15 11:07:44;;;;;;;6.75;5.10;;;;;;;;;;4994123;28;20239;-49
2023/05/15 11:10:28;;;;;;;6.63;4.63;;;;;;;;;;4994196;28;20518;-51
2023/05/15 11:12:55;;;;;;;5.13;4.65;;;;;;;;;;4994871;28;20581;-51
2023/05/15 11:15:21;;;;;;;4.90;4.50;;;;;;;;;;4994586;28;20181;-51
2023/05/15 11:18:03;;;;;;;4.72;4.15;;;;;;;;;;4994443;28;20188;-50
2023/05/15 11:20:52;;;;;;;4.28;3.88;;;;;;;;;;4984902;28;20453;-51
2023/05/15 11:23:22;;;;;;;6.53;4.18;;;;;;;;;;4979387;28;20260;-50
2023/05/15 11:25:56;;;;;;;4.60;4.13;;;;;;;;;;4989708;28;20247;-52
2023/05/15 11:28:22;;;;;;;4.10;3.80;;;;;;;;;;4992872;28;20180;-49
2023/05/15 11:30:50;;;;;;;4.43;3.83;;;;;;;;;;4994045;28;20537;-51
2023/05/15 11:33:16;;;;;;;3.85;3.35;;;;;;;;;;4994154;28;20224;-51
2023/05/15 11:35:46;;;;;;;3.92;3.60;;;;;;;;;;4993557;28;20200;-51
2023/05/15 11:38:16;;;;;;;3.90;3.60;;;;;;;;;;4993007;28;20184;-51
2023/05/15 11:40:46;;;;;;;4.45;4.05;;;;;;;;;;4993783;28;20185;-51
2023/05/15 11:43:28;;;;;;;7.53;3.58;;;;;;;;;;4994016;28;20581;-51
2023/05/15 11:45:56;;;;;;;4.53;3.55;;;;;;;;;;4993865;28;20201;-51
2023/05/15 11:48:23;;;;;;;5.90;3.20;;;;;;;;;;4993127;28;20244;-51
2023/05/15 11:50:52;;;;;;;3.50;3.20;;;;;;;;;;4993872;28;20253;-51
2023/05/15 11:53:18;;;;;;;3.65;3.35;;;;;;;;;;4991409;28;20234;-49
2023/05/15 11:55:45;;;;;;;3.80;3.33;;;;;;;;;;4994178;28;20193;-51
2023/05/15 11:58:18;;;;;;;4.90;3.33;;;;;;;;;;4977126;28;20204;-51
2023/05/15 12:00:45;;;;;;;3.35;3.05;;;;;;;;;;4994392;28;20870;-51
2023/05/15 12:03:11;;;;;;;5.75;3.60;;;;;;;;;;4993522;28;20209;-50
2023/05/15 12:05:39;;;;;;;5.45;3.13;;;;;;;;;;4993565;28;20204;-51
2023/05/15 12:08:08;;;;;;;4.57;3.10;;;;;;;;;;4993345;28;20193;-51
2023/05/15 12:10:39;;;;;;;3.53;2.92;;;;;;;;;;4993488;28;20188;-51
2023/05/15 12:13:05;;;;;;;7.07;3.35;;;;;;;;;;4993138;28;20193;-50
2023/05/15 12:15:31;;;;;;;6.78;3.08;;;;;;;;;;4994091;28;20185;-48
2023/05/15 12:17:56;;;;;;;7.07;3.08;;;;;;;;;;4993402;28;20185;-50
2023/05/15 12:20:22;;;;;;;5.85;3.10;;;;;;;;;;5002321;28;20181;-50
2023/05/15 12:22:48;;;;;;;4.93;2.75;;;;;;;;;;4993753;28;20573;-52
2023/05/15 12:25:15;;;;;;;6.03;3.35;;;;;;;;;;4993788;28;20196;-51
2023/05/15 12:27:41;;;;;;;5.43;3.10;;;;;;;;;;4993523;28;20634;-52
2023/05/15 12:30:09;;;;;;;7.68;3.33;;;;;;;;;;4976809;28;20689;-53
2023/05/15 12:32:36;;;;;;;6.53;3.40;;;;;;;;;;4991882;28;20482;-53
2023/05/15 12:35:02;;;;;;;5.32;3.05;;;;;;;;;;4990839;28;20208;-53
2023/05/15 12:37:31;;;;;;;12.02;3.20;;;;;;;;;;4976305;28;20256;-53
2023/05/15 12:40:01;;;;;;;4.45;3.17;;;;;;;;;;4996052;28;20180;-53
2023/05/15 12:42:27;;;;;;;5.20;3.40;;;;;;;;;;4994429;28;20632;-53
2023/05/15 12:44:54;;;;;;;7.03;3.40;;;;;;;;;;4998657;28;20589;-53
2023/05/15 12:47:23;;;;;;;8.30;3.72;;;;;;;;;;4993416;28;20192;-53
2023/05/15 12:49:50;;;;;;;4.53;2.88;;;;;;;;;;4992525;28;20192;-53
2023/05/15 12:52:16;;;;;;;3.78;3.10;;;;;;;;;;4996623;28;20185;-53
2023/05/15 12:54:43;;;;;;;5.63;3.22;;;;;;;;;;4995884;28;20260;-52
2023/05/15 12:57:09;;;;;;;5.70;3.55;;;;;;;;;;4995722;28;20475;-52
2023/05/15 12:59:35;;;;;;;5.35;2.95;;;;;;;;;;4995775;28;20252;-52
2023/05/15 13:02:01;;;;;;;5.15;3.17;;;;;;;;;;4996724;28;20217;-52
2023/05/15 13:04:27;;;;;;;8.25;3.17;;;;;;;;;;4995763;28;20200;-52
2023/05/15 13:06:53;;;;;;;5.53;3.50;;;;;;;;;;4996104;28;20185;-52
2023/05/15 13:09:23;;;;;;;4.50;3.42;;;;;;;;;;4996081;28;20184;-52
2023/05/15 13:11:49;;;;;;;8.35;2.92;;;;;;;;;;4997704;28;20200;-52
2023/05/15 13:14:18;;;;;;;5.85;3.30;;;;;;;;;;4996767;28;20185;-52
2023/05/15 13:16:45;;;;;;;5.00;3.08;;;;;;;;;;4996801;28;20185;-52
2023/05/15 13:19:11;;;;;;;5.20;3.22;;;;;;;;;;4995919;28;20463;-52
2023/05/15 13:21:37;;;;;;;4.53;3.63;;;;;;;;;;4980544;28;20205;-52
2023/05/15 13:24:04;;;;;;;4.88;3.08;;;;;;;;;;4996908;28;20472;-52
2023/05/15 13:26:29;;;;;;;4.60;3.50;;;;;;;;;;4996905;28;20188;-52
2023/05/15 13:28:55;;;;;;;4.70;3.38;;;;;;;;;;4996048;28;20185;-52
2023/05/15 13:31:22;;;;;;;4.40;3.53;;;;;;;;;;4995751;28;20317;-52
2023/05/15 13:33:47;;;;;;;4.05;3.53;;;;;;;;;;4996115;28;20237;-52
2023/05/15 13:36:14;;;;;;;4.30;3.15;;;;;;;;;;4996319;28;20232;-52
2023/05/15 13:38:40;;;;;;;3.10;2.80;;;;;;;;;;4996027;28;20480;-52
2023/05/15 13:41:06;;;;;;;5.45;3.25;;;;;;;;;;4979423;28;20320;-52
2023/05/15 13:43:32;;;;;;;5.45;3.25;;;;;;;;;;4995378;28;20248;-52
2023/05/15 13:45:58;;;;;;;3.10;2.90;;;;;;;;;;4995487;28;20197;-52
2023/05/15 13:48:24;;;;;;;4.63;3.47;;;;;;;;;;4994287;28;20185;-52
2023/05/15 13:50:50;;;;;;;4.22;3.58;;;;;;;;;;4994899;28;20181;-52
2023/05/15 13:53:15;;;;;;;3.80;3.50;;;;;;;;;;4996519;28;20181;-52
2023/05/15 13:55:45;;;;;;;4.85;3.33;;;;;;;;;;4996668;28;20208;-52
2023/05/15 13:58:11;;;;;;;3.38;3.00;;;;;;;;;;4993944;28;20189;-52
2023/05/15 14:00:38;;;;;;;7.22;2.95;;;;;;;;;;4995562;28;20502;-52
2023/05/15 14:03:05;;;;;;;7.10;3.05;;;;;;;;;;4995954;28;20481;-52
2023/05/15 14:05:32;;;;;;;3.55;3.25;;;;;;;;;;4995992;28;20169;-52
2023/05/15 14:07:57;;;;;;;4.25;3.13;;;;;;;;;;4995688;28;20571;-52
2023/05/15 14:10:23;;;;;;;2.90;2.67;;;;;;;;;;4995546;28;20182;-52
2023/05/15 14:12:49;;;;;;;5.65;2.95;;;;;;;;;;4995779;28;20444;-52
2023/05/15 14:15:15;;;;;;;3.65;3.30;;;;;;;;;;4995358;28;20216;-52
2023/05/15 14:17:42;;;;;;;4.75;3.30;;;;;;;;;;4996084;28;20177;-52
2023/05/15 14:20:11;;;;;;;3.60;3.25;;;;;;;;;;4995308;28;20192;-52
2023/05/15 14:22:38;;;;;;;3.88;3.58;;;;;;;;;;4980416;28;20208;-52
2023/05/15 14:25:04;;;;;;;4.07;3.72;;;;;;;;;;4996019;28;20754;-52
2023/05/15 14:27:30;;;;;;;4.78;3.35;;;;;;;;;;4989519;28;20579;-52
2023/05/15 14:29:56;;;;;;;6.00;3.42;;;;;;;;;;4995209;28;20514;-52
2023/05/15 14:32:23;;;;;;;3.97;3.58;;;;;;;;;;4994656;28;20492;-52
2023/05/15 14:34:49;;;;;;;4.13;3.47;;;;;;;;;;4994633;28;20235;-52
2023/05/15 14:37:15;;;;;;;4.45;3.90;;;;;;;;;;4995011;28;20196;-52
2023/05/15 14:39:41;;;;;;;4.75;3.20;;;;;;;;;;4993259;28;20185;-52